Terminal Aerodrome Forecast
Issued by NWS

Home | Current Version | Previous Version | Graphics & Text | Print | Product List | Glossary Off
Versions: 1 2 3 4 5 6 7 8 9 10 11 12 13 14 15

000
FTUS43 KGRB 242300
TAFCWA
TAF
KCWA 242328Z 2500/2524 22005KT P6SM SCT060
     FM250500 17005KT P6SM SCT060 BKN120 WS010/23030KT
     FM251400 18010G18KT P6SM SCT040 BKN090 PROB30 2514/2518 -TSRA
      OVC040CB
      AMD LTD TO CLD VIS AND WIND 2503/2511=

USA.gov is the U.S. government's official web portal to all federal, state and local government web resources and services.